< < Back
Terminal Aerodrome Forecast


Current Version              Previous Versions:   1  2  3  4  5  6  7  8  9  

Terminal Aerodrome Forecast

513
FTUS44 KOHX 050521
TAFCSV
TAF
KCSV 050521Z 0506/0606 VRB05KT P6SM SKC=

Latest METAR

109
SAUS70 KWBC 060300 RRE
MTRCSV
METAR KCSV 060253Z AUTO 00000KT 10SM CLR M01/M09 A3036 RMK AO2 SLP296
T10111089 58001


USA.gov is the U.S. government's official web portal to all federal, state and local government web resources and services.